createdAt,value
2022-10-30T00:00:09.262Z,12.20
2022-10-30T00:02:12.206Z,12.10
2022-10-30T00:04:15.373Z,12.20
2022-10-30T00:08:26.426Z,12.20
2022-10-30T00:10:29.325Z,12.20
2022-10-30T00:12:32.117Z,12.20
2022-10-30T00:14:36.376Z,12.20
2022-10-30T00:16:39.022Z,12.10
2022-10-30T00:18:43.101Z,12.10
2022-10-30T00:20:45.995Z,12.00
2022-10-30T00:22:48.739Z,12.00
2022-10-30T00:24:51.693Z,12.00
2022-10-30T00:26:54.581Z,12.00
2022-10-30T00:28:57.535Z,12.00
2022-10-30T00:31:02.682Z,12.00
2022-10-30T00:33:05.904Z,12.00
2022-10-30T00:35:09.309Z,11.90
2022-10-30T00:37:12.316Z,11.90
2022-10-30T00:39:15.305Z,11.90
2022-10-30T00:41:20.474Z,11.90
2022-10-30T00:43:32.606Z,11.90
2022-10-30T00:45:35.554Z,11.90
2022-10-30T00:47:42.703Z,11.80
2022-10-30T00:49:52.424Z,11.80
2022-10-30T00:51:56.028Z,11.90
2022-10-30T00:54:01.317Z,11.90
2022-10-30T00:56:06.985Z,11.90
2022-10-30T00:58:13.911Z,11.90
2022-10-30T01:00:18.351Z,11.90
2022-10-30T01:02:23.099Z,11.90
2022-10-30T01:04:30.168Z,11.80
2022-10-30T01:06:34.826Z,11.80
2022-10-30T01:08:38.994Z,11.70
2022-10-30T01:10:42.112Z,11.70
2022-10-30T01:12:46.183Z,11.70
2022-10-30T01:14:52.763Z,11.60
2022-10-30T01:17:15.812Z,11.60
2022-10-30T01:19:25.427Z,11.60
2022-10-30T01:21:40.697Z,11.50
2022-10-30T01:23:54.988Z,11.50
2022-10-30T01:26:08.737Z,11.40
2022-10-30T01:28:27.809Z,11.40
2022-10-30T01:30:44.607Z,11.30
2022-10-30T01:33:01.443Z,11.30
2022-10-30T01:35:09.086Z,11.30
2022-10-30T01:37:18.940Z,11.30
2022-10-30T01:39:25.077Z,11.30
2022-10-30T01:41:27.743Z,11.30
2022-10-30T01:43:30.639Z,11.40
2022-10-30T01:45:55.850Z,11.40
2022-10-30T01:48:23.097Z,11.50
2022-10-30T01:50:35.543Z,11.50
2022-10-30T01:52:45.649Z,11.50
2022-10-30T01:54:54.425Z,11.50
2022-10-30T01:57:05.633Z,11.40
2022-10-30T01:59:15.474Z,11.50
2022-10-30T02:01:19.433Z,11.40
2022-10-30T02:03:23.190Z,11.40
2022-10-30T02:05:32.690Z,11.40
2022-10-30T02:07:37.198Z,11.30
2022-10-30T02:09:41.687Z,11.30
2022-10-30T02:11:46.912Z,11.30
2022-10-30T02:13:50.847Z,11.20
2022-10-30T02:15:54.166Z,11.10
2022-10-30T02:17:58.012Z,11.10
2022-10-30T02:20:00.890Z,11.00
2022-10-30T02:22:05.612Z,11.00
2022-10-30T02:24:08.800Z,11.00
2022-10-30T02:26:11.750Z,11.00
2022-10-30T02:28:14.451Z,10.90
2022-10-30T02:30:17.661Z,10.80
2022-10-30T02:32:20.572Z,10.80
2022-10-30T02:34:23.320Z,10.80
2022-10-30T02:36:26.040Z,10.70
2022-10-30T02:38:31.504Z,10.70
2022-10-30T02:40:34.225Z,10.70
2022-10-30T02:42:37.406Z,10.70
2022-10-30T02:44:40.076Z,10.70
2022-10-30T02:46:42.807Z,10.70
2022-10-30T02:48:45.467Z,10.70
2022-10-30T02:50:48.162Z,10.70
2022-10-30T02:52:51.166Z,10.70
2022-10-30T02:54:55.144Z,10.70
2022-10-30T02:56:57.841Z,10.80
2022-10-30T02:59:00.561Z,10.80
2022-10-30T03:01:07.558Z,10.80
2022-10-30T03:03:10.325Z,10.90
2022-10-30T03:05:13.066Z,10.90
2022-10-30T03:07:15.770Z,10.90
2022-10-30T03:09:18.527Z,10.90
2022-10-30T03:11:22.812Z,10.90
2022-10-30T03:13:25.515Z,10.90
2022-10-30T03:15:28.186Z,10.90
2022-10-30T03:17:31.246Z,10.90
2022-10-30T03:19:34.119Z,11.00
2022-10-30T03:21:37.004Z,11.00
2022-10-30T03:23:39.888Z,11.00
2022-10-30T03:25:42.539Z,11.00
2022-10-30T03:27:46.552Z,11.00
2022-10-30T03:29:49.315Z,11.10
2022-10-30T03:31:52.307Z,11.10
2022-10-30T03:33:54.976Z,11.10
2022-10-30T03:35:57.761Z,11.10
2022-10-30T03:38:00.652Z,11.00
2022-10-30T03:40:03.375Z,11.00
2022-10-30T03:42:06.337Z,11.00
2022-10-30T03:44:10.390Z,11.00
2022-10-30T03:46:13.596Z,11.00
2022-10-30T03:48:17.092Z,11.00
2022-10-30T03:50:19.841Z,11.00
2022-10-30T03:52:22.512Z,11.00
2022-10-30T03:54:25.211Z,11.00
2022-10-30T03:56:27.865Z,11.00
2022-10-30T03:58:30.878Z,10.90
2022-10-30T04:00:35.931Z,10.90
2022-10-30T04:02:38.606Z,10.90
2022-10-30T04:04:41.682Z,10.90
2022-10-30T04:06:44.805Z,10.90
2022-10-30T04:08:47.530Z,10.90
2022-10-30T04:10:50.552Z,10.90
2022-10-30T04:12:54.675Z,11.00
2022-10-30T04:14:57.757Z,11.00
2022-10-30T04:17:02.072Z,11.00
2022-10-30T04:19:05.285Z,11.00
2022-10-30T04:21:07.978Z,11.00
2022-10-30T04:23:15.242Z,11.00
2022-10-30T04:25:18.493Z,11.00
2022-10-30T04:27:21.527Z,11.00
2022-10-30T04:29:24.457Z,11.00
2022-10-30T04:31:27.469Z,10.90
2022-10-30T04:33:31.518Z,10.90
2022-10-30T04:35:37.387Z,10.90
2022-10-30T04:37:40.593Z,10.90
2022-10-30T04:39:46.398Z,10.90
2022-10-30T04:41:49.536Z,10.90
2022-10-30T04:43:52.821Z,10.90
2022-10-30T04:45:55.745Z,10.90
2022-10-30T04:48:02.532Z,11.00
2022-10-30T04:50:08.054Z,11.00
2022-10-30T04:52:10.962Z,11.00
2022-10-30T04:54:13.883Z,11.00
2022-10-30T04:56:17.348Z,11.00
2022-10-30T04:58:20.198Z,11.00
2022-10-30T05:00:23.070Z,10.90
2022-10-30T05:02:26.456Z,10.90
2022-10-30T05:04:29.234Z,10.90
2022-10-30T05:06:34.025Z,11.00
2022-10-30T05:08:36.878Z,11.00
2022-10-30T05:10:40.406Z,11.00
2022-10-30T05:12:43.850Z,11.00
2022-10-30T05:14:46.746Z,11.00
2022-10-30T05:16:49.397Z,11.00
2022-10-30T05:18:52.293Z,11.00
2022-10-30T05:20:55.173Z,11.10
2022-10-30T05:23:00.764Z,11.10
2022-10-30T05:25:03.459Z,11.10
2022-10-30T05:27:06.214Z,11.00
2022-10-30T05:29:09.083Z,11.00
2022-10-30T05:31:11.886Z,11.00
2022-10-30T05:33:17.405Z,11.00
2022-10-30T05:35:20.109Z,10.90
2022-10-30T05:37:23.022Z,10.90
2022-10-30T05:39:27.085Z,10.90
2022-10-30T05:41:29.866Z,10.90
2022-10-30T05:43:32.584Z,10.90
2022-10-30T05:45:35.331Z,10.90
2022-10-30T05:47:38.022Z,10.90
2022-10-30T05:49:40.969Z,10.90
2022-10-30T05:51:43.668Z,10.90
2022-10-30T05:53:49.589Z,10.90
2022-10-30T05:55:57.388Z,10.90
2022-10-30T05:58:01.536Z,10.80
2022-10-30T06:00:05.313Z,10.80
2022-10-30T06:02:08.370Z,10.70
2022-10-30T06:04:11.328Z,10.70
2022-10-30T06:06:14.035Z,10.70
2022-10-30T06:08:17.151Z,10.60
2022-10-30T06:10:19.945Z,10.60
2022-10-30T06:12:24.008Z,10.60
2022-10-30T06:14:26.729Z,10.60
2022-10-30T06:16:29.713Z,10.70
2022-10-30T06:18:32.637Z,10.70
2022-10-30T06:20:35.347Z,10.70
2022-10-30T06:22:38.390Z,10.70
2022-10-30T06:24:41.088Z,10.70
2022-10-30T06:26:43.786Z,10.70
2022-10-30T06:28:47.876Z,10.70
2022-10-30T06:30:50.803Z,10.80
2022-10-30T06:32:58.706Z,10.80
2022-10-30T06:35:01.747Z,10.70
2022-10-30T06:37:04.868Z,10.70
2022-10-30T06:39:07.592Z,10.70
2022-10-30T06:41:10.770Z,10.70
2022-10-30T06:43:13.746Z,10.80
2022-10-30T06:45:19.526Z,10.70
2022-10-30T06:47:22.209Z,10.70
2022-10-30T06:49:25.059Z,10.70
2022-10-30T06:51:27.974Z,10.60
2022-10-30T06:53:30.926Z,10.60
2022-10-30T06:55:33.681Z,10.60
2022-10-30T06:57:37.013Z,10.60
2022-10-30T06:59:40.033Z,10.50
2022-10-30T07:01:44.528Z,10.50
2022-10-30T07:03:47.285Z,10.60
2022-10-30T07:05:50.207Z,10.60
2022-10-30T07:07:52.871Z,10.60
2022-10-30T07:09:55.642Z,10.60
2022-10-30T07:12:02.670Z,10.70
2022-10-30T07:14:08.667Z,10.70
2022-10-30T07:16:11.591Z,10.80
2022-10-30T07:18:15.864Z,10.90
2022-10-30T07:20:18.594Z,11.00
2022-10-30T07:22:22.297Z,11.00
2022-10-30T07:24:25.188Z,11.10
2022-10-30T07:26:28.088Z,11.10
2022-10-30T07:28:31.548Z,11.20
2022-10-30T07:30:34.308Z,11.20
2022-10-30T07:32:37.691Z,11.30
2022-10-30T07:34:41.787Z,11.30
2022-10-30T07:36:44.899Z,11.40
2022-10-30T07:38:49.052Z,11.40
2022-10-30T07:40:54.274Z,11.50
2022-10-30T07:42:58.478Z,11.60
2022-10-30T07:45:01.635Z,11.70
2022-10-30T07:47:04.454Z,11.80
2022-10-30T07:49:07.148Z,11.90
2022-10-30T07:51:11.224Z,12.10
2022-10-30T07:53:14.089Z,12.20
2022-10-30T07:55:17.016Z,12.30
2022-10-30T07:57:19.878Z,12.50
2022-10-30T07:59:22.569Z,12.60
2022-10-30T08:01:25.488Z,12.80
2022-10-30T08:03:28.807Z,13.00
2022-10-30T08:05:31.492Z,13.10
2022-10-30T08:07:37.476Z,13.30
2022-10-30T08:09:40.193Z,13.50
2022-10-30T08:11:43.081Z,13.50
2022-10-30T08:13:45.799Z,13.70
2022-10-30T08:15:49.752Z,13.80
2022-10-30T08:17:53.164Z,13.90
2022-10-30T08:19:56.998Z,14.00
2022-10-30T08:22:00.176Z,14.00
2022-10-30T08:24:04.920Z,14.10
2022-10-30T08:26:07.691Z,14.10
2022-10-30T08:28:12.079Z,14.20
2022-10-30T08:30:15.640Z,14.30
2022-10-30T08:32:20.012Z,14.30
2022-10-30T08:34:23.039Z,14.40
2022-10-30T08:36:25.764Z,14.40
2022-10-30T08:38:29.388Z,14.50
2022-10-30T08:40:33.494Z,14.50
2022-10-30T08:42:36.580Z,14.50
2022-10-30T08:44:39.486Z,14.60
2022-10-30T08:46:42.383Z,14.70
2022-10-30T08:48:45.068Z,14.70
2022-10-30T08:50:48.329Z,14.80
2022-10-30T08:52:53.895Z,14.80
2022-10-30T08:54:57.880Z,14.90
2022-10-30T08:57:02.101Z,14.90
2022-10-30T08:59:05.058Z,15.00
2022-10-30T09:01:08.188Z,15.00
2022-10-30T09:03:11.163Z,15.10
2022-10-30T09:05:13.860Z,15.20
2022-10-30T09:07:16.893Z,15.20
2022-10-30T09:09:19.804Z,15.30
2022-10-30T09:11:22.703Z,15.40
2022-10-30T09:13:27.048Z,15.60
2022-10-30T09:15:30.079Z,15.70
2022-10-30T09:17:32.847Z,15.80
2022-10-30T09:19:38.042Z,15.90
2022-10-30T09:21:40.854Z,16.00
2022-10-30T09:23:44.429Z,16.10
2022-10-30T09:25:47.191Z,16.10
2022-10-30T09:27:50.118Z,16.10
2022-10-30T09:29:54.381Z,16.20
2022-10-30T09:31:57.096Z,16.20
2022-10-30T09:33:59.953Z,16.30
2022-10-30T09:36:03.247Z,16.30
2022-10-30T09:38:06.294Z,16.40
2022-10-30T09:40:13.895Z,16.40
2022-10-30T09:42:37.642Z,16.50
2022-10-30T09:45:08.138Z,16.60
2022-10-30T09:47:23.774Z,16.60
2022-10-30T09:49:50.029Z,16.70
2022-10-30T09:52:22.797Z,16.70
2022-10-30T09:54:37.126Z,16.80
2022-10-30T09:56:46.110Z,16.90
2022-10-30T09:59:00.814Z,17.00
2022-10-30T10:01:13.132Z,17.00
2022-10-30T10:03:39.497Z,17.10
2022-10-30T10:05:46.922Z,17.10
2022-10-30T10:07:53.416Z,17.10
2022-10-30T10:10:02.367Z,17.20
2022-10-30T10:12:09.987Z,17.20
2022-10-30T10:14:18.579Z,17.20
2022-10-30T10:16:23.494Z,17.30
2022-10-30T10:18:29.480Z,17.30
2022-10-30T10:20:38.051Z,17.40
2022-10-30T10:22:47.208Z,17.40
2022-10-30T10:24:50.408Z,17.50
2022-10-30T10:26:58.920Z,17.60
2022-10-30T10:29:21.861Z,17.60
2022-10-30T10:31:37.331Z,17.70
2022-10-30T10:33:55.234Z,17.70
2022-10-30T10:36:11.348Z,17.70
2022-10-30T10:38:26.601Z,17.80
2022-10-30T10:40:41.620Z,17.90
2022-10-30T10:42:53.738Z,17.90
2022-10-30T10:45:18.313Z,18.00
2022-10-30T10:47:37.678Z,18.00
2022-10-30T10:49:59.211Z,18.00
2022-10-30T10:52:10.640Z,18.00
2022-10-30T10:54:19.422Z,18.10
2022-10-30T10:56:29.236Z,18.10
2022-10-30T10:58:37.254Z,18.10
2022-10-30T11:00:41.975Z,18.10
2022-10-30T11:02:50.049Z,18.10
2022-10-30T11:04:56.507Z,18.10
2022-10-30T11:07:00.352Z,18.10
2022-10-30T11:09:16.832Z,18.10
2022-10-30T11:11:19.574Z,18.10
2022-10-30T11:13:24.001Z,18.20
2022-10-30T11:15:38.549Z,18.20
2022-10-30T11:17:46.508Z,18.30
2022-10-30T11:19:52.458Z,18.30
2022-10-30T11:21:57.187Z,18.40
2022-10-30T11:24:00.134Z,18.50
2022-10-30T11:26:04.547Z,18.50
2022-10-30T11:28:07.473Z,18.60
2022-10-30T11:30:20.454Z,18.70
2022-10-30T11:32:27.222Z,18.70
2022-10-30T11:34:37.115Z,18.70
2022-10-30T11:36:39.840Z,18.80
2022-10-30T11:38:42.552Z,18.80
2022-10-30T11:40:49.671Z,18.80
2022-10-30T11:43:02.618Z,18.90
2022-10-30T11:45:07.120Z,18.90
2022-10-30T11:47:12.038Z,18.90
2022-10-30T11:49:31.647Z,18.90
2022-10-30T11:51:38.427Z,19.00
2022-10-30T11:53:44.558Z,19.00
2022-10-30T11:55:48.913Z,19.00
2022-10-30T11:57:56.645Z,19.00
2022-10-30T12:00:05.921Z,19.00
2022-10-30T12:02:22.742Z,19.10
2022-10-30T12:04:28.274Z,19.10
2022-10-30T12:06:31.042Z,19.10
2022-10-30T12:08:33.814Z,19.20
2022-10-30T12:10:43.787Z,19.20
2022-10-30T12:12:51.454Z,19.20
2022-10-30T12:14:56.273Z,19.30
2022-10-30T12:17:00.298Z,19.30
2022-10-30T12:19:06.018Z,19.40
2022-10-30T12:21:08.898Z,19.40
2022-10-30T12:23:13.559Z,19.40
2022-10-30T12:25:25.593Z,19.50
2022-10-30T12:27:30.347Z,19.40
2022-10-30T12:30:07.782Z,19.40
2022-10-30T12:32:09.210Z,19.40
2022-10-30T12:34:36.977Z,19.50
2022-10-30T12:36:46.991Z,19.50
2022-10-30T12:38:53.877Z,19.50
2022-10-30T12:41:06.578Z,19.60
2022-10-30T12:43:17.339Z,19.60
2022-10-30T12:45:23.662Z,19.60
2022-10-30T12:47:35.778Z,19.70
2022-10-30T12:49:42.932Z,19.70
2022-10-30T12:51:53.241Z,19.80
2022-10-30T12:54:01.635Z,19.80
2022-10-30T12:56:10.275Z,19.90
2022-10-30T12:58:22.639Z,19.80
2022-10-30T13:00:29.226Z,19.80
2022-10-30T13:02:47.106Z,19.80
2022-10-30T13:04:57.667Z,19.90
2022-10-30T13:07:06.069Z,19.90
2022-10-30T13:09:15.623Z,20.00
2022-10-30T13:11:28.912Z,20.00
2022-10-30T13:13:37.668Z,20.00
2022-10-30T13:15:45.842Z,20.00
2022-10-30T13:17:51.015Z,20.10
2022-10-30T13:19:53.957Z,20.10
2022-10-30T13:22:02.176Z,20.10
2022-10-30T13:24:12.005Z,20.10
2022-10-30T13:26:25.057Z,20.20
2022-10-30T13:28:32.400Z,20.20
2022-10-30T13:30:38.694Z,20.20
2022-10-30T13:32:54.620Z,20.20
2022-10-30T13:35:09.928Z,20.20
2022-10-30T13:37:17.334Z,20.20
2022-10-30T13:39:32.091Z,20.30
2022-10-30T13:41:41.244Z,20.30
2022-10-30T13:43:52.554Z,20.40
2022-10-30T13:46:13.535Z,20.30
2022-10-30T13:48:27.029Z,20.30
2022-10-30T13:50:43.410Z,20.30
2022-10-30T13:52:50.904Z,20.40
2022-10-30T13:55:01.321Z,20.40
2022-10-30T13:57:15.282Z,20.40
2022-10-30T13:59:43.749Z,20.30
2022-10-30T14:02:01.515Z,20.40
2022-10-30T14:04:11.123Z,20.40
2022-10-30T14:06:22.883Z,20.30
2022-10-30T14:08:34.233Z,20.30
2022-10-30T14:10:46.198Z,20.30
2022-10-30T14:12:53.543Z,20.20
2022-10-30T14:14:56.282Z,20.20
2022-10-30T14:17:11.927Z,20.20
2022-10-30T14:19:17.448Z,20.10
2022-10-30T14:21:41.170Z,20.10
2022-10-30T14:23:44.059Z,20.00
2022-10-30T14:26:13.833Z,20.00
2022-10-30T14:28:21.161Z,20.00
2022-10-30T14:30:23.931Z,19.90
2022-10-30T14:32:51.008Z,19.90
2022-10-30T14:35:00.041Z,19.80
2022-10-30T14:37:02.940Z,19.80
2022-10-30T14:39:28.169Z,19.70
2022-10-30T14:41:53.950Z,19.70
2022-10-30T14:44:14.648Z,19.60
2022-10-30T14:46:25.910Z,19.50
2022-10-30T14:48:37.017Z,19.50
2022-10-30T14:50:57.165Z,19.40
2022-10-30T14:53:18.143Z,19.40
2022-10-30T14:55:28.998Z,19.30
2022-10-30T14:57:47.804Z,19.20
2022-10-30T15:00:38.619Z,19.20
2022-10-30T15:02:50.051Z,19.10
2022-10-30T15:05:12.646Z,19.10
2022-10-30T15:07:24.966Z,19.00
2022-10-30T15:09:53.835Z,18.90
2022-10-30T15:12:09.773Z,18.90
2022-10-30T15:14:21.623Z,18.80
2022-10-30T15:16:40.653Z,18.80
2022-10-30T15:18:47.102Z,18.80
2022-10-30T15:20:52.918Z,18.80
2022-10-30T15:22:58.377Z,18.80
2022-10-30T15:25:02.577Z,18.80
2022-10-30T15:27:05.791Z,18.70
2022-10-30T15:29:14.247Z,18.70
2022-10-30T15:31:23.886Z,18.70
2022-10-30T15:33:28.094Z,18.60
2022-10-30T15:35:30.894Z,18.60
2022-10-30T15:37:34.376Z,18.50
2022-10-30T15:39:37.240Z,18.40
2022-10-30T15:41:44.867Z,18.30
2022-10-30T15:43:47.940Z,18.20
2022-10-30T15:45:57.235Z,18.10
2022-10-30T15:48:03.249Z,18.10
2022-10-30T15:50:08.403Z,18.00
2022-10-30T15:52:16.942Z,17.90
2022-10-30T15:54:22.277Z,17.90
2022-10-30T15:56:28.917Z,17.80
2022-10-30T15:58:35.653Z,17.80
2022-10-30T16:00:39.452Z,17.70
2022-10-30T16:02:42.228Z,17.70
2022-10-30T16:04:45.290Z,17.70
2022-10-30T16:06:54.436Z,17.60
2022-10-30T16:08:58.160Z,17.50
2022-10-30T16:11:01.100Z,17.50
2022-10-30T16:13:05.016Z,17.40
2022-10-30T16:15:17.902Z,17.40
2022-10-30T16:17:21.010Z,17.30
2022-10-30T16:19:29.169Z,17.20
2022-10-30T16:21:34.989Z,17.10
2022-10-30T16:23:42.167Z,17.10
2022-10-30T16:25:47.492Z,17.00
2022-10-30T16:27:50.593Z,16.90
2022-10-30T16:29:57.014Z,16.80
2022-10-30T16:32:01.728Z,16.80
2022-10-30T16:34:10.215Z,16.70
2022-10-30T16:36:16.818Z,16.60
2022-10-30T16:38:21.010Z,16.50
2022-10-30T16:40:28.168Z,16.40
2022-10-30T16:42:30.981Z,16.40
2022-10-30T16:44:35.010Z,16.30
2022-10-30T16:46:40.530Z,16.30
2022-10-30T16:48:46.971Z,16.20
2022-10-30T16:50:50.710Z,16.10
2022-10-30T16:52:53.457Z,16.10
2022-10-30T16:55:02.297Z,16.00
2022-10-30T16:57:15.910Z,15.90
2022-10-30T16:59:25.627Z,15.80
2022-10-30T17:01:29.473Z,15.70
2022-10-30T17:03:37.460Z,15.70
2022-10-30T17:05:43.456Z,15.60
2022-10-30T17:07:55.582Z,15.60
2022-10-30T17:09:58.619Z,15.50
2022-10-30T17:12:12.794Z,15.40
2022-10-30T17:14:19.952Z,15.40
2022-10-30T17:16:25.706Z,15.30
2022-10-30T17:18:33.000Z,15.20
2022-10-30T17:20:36.154Z,15.20
2022-10-30T17:22:39.518Z,15.10
2022-10-30T17:24:42.468Z,15.10
2022-10-30T17:26:56.737Z,15.00
2022-10-30T17:29:00.884Z,14.90
2022-10-30T17:31:22.911Z,14.90
2022-10-30T17:33:36.927Z,14.80
2022-10-30T17:35:39.886Z,14.80
2022-10-30T17:37:43.087Z,14.70
2022-10-30T17:39:45.801Z,14.60
2022-10-30T17:41:48.854Z,14.50
2022-10-30T17:43:53.567Z,14.40
2022-10-30T17:45:58.309Z,14.30
2022-10-30T17:48:01.486Z,14.30
2022-10-30T17:50:05.374Z,14.20
2022-10-30T17:52:10.954Z,14.10
2022-10-30T17:54:14.689Z,14.10
2022-10-30T17:56:20.691Z,14.00
2022-10-30T17:58:23.713Z,13.90
2022-10-30T18:00:26.526Z,13.90
2022-10-30T18:02:30.780Z,13.80
2022-10-30T18:04:33.744Z,13.80
2022-10-30T18:06:36.487Z,13.70
2022-10-30T18:08:39.228Z,13.70
2022-10-30T18:10:42.163Z,13.60
2022-10-30T18:12:45.424Z,13.60
2022-10-30T18:14:48.129Z,13.50
2022-10-30T18:16:54.494Z,13.40
2022-10-30T18:18:59.545Z,13.40
2022-10-30T18:21:02.485Z,13.30
2022-10-30T18:23:05.537Z,13.30
2022-10-30T18:25:17.590Z,13.30
2022-10-30T18:27:20.255Z,13.30
2022-10-30T18:29:23.102Z,13.30
2022-10-30T18:31:25.833Z,13.30
2022-10-30T18:33:28.590Z,13.30
2022-10-30T18:35:36.086Z,13.30
2022-10-30T18:37:38.949Z,13.20
2022-10-30T18:39:41.683Z,13.20
2022-10-30T18:41:45.906Z,13.20
2022-10-30T18:43:48.582Z,13.10
2022-10-30T18:45:51.419Z,13.10
2022-10-30T18:47:55.613Z,13.10
2022-10-30T18:49:58.285Z,13.10
2022-10-30T18:52:02.612Z,13.00
2022-10-30T18:54:12.918Z,12.90
2022-10-30T18:56:15.833Z,12.90
2022-10-30T18:58:18.602Z,12.80
2022-10-30T19:00:25.047Z,12.80
2022-10-30T19:02:27.842Z,12.70
2022-10-30T19:04:30.795Z,12.70
2022-10-30T19:06:34.070Z,12.60
2022-10-30T19:08:38.299Z,12.60
2022-10-30T19:10:44.176Z,12.50
2022-10-30T19:13:10.988Z,12.50
2022-10-30T19:15:15.993Z,12.50
2022-10-30T19:17:18.714Z,12.50
2022-10-30T19:19:21.472Z,12.40
2022-10-30T19:21:26.360Z,12.50
2022-10-30T19:23:29.228Z,12.40
2022-10-30T19:25:35.781Z,12.40
2022-10-30T19:27:38.477Z,12.40
2022-10-30T19:29:41.396Z,12.40
2022-10-30T19:31:44.149Z,12.40
2022-10-30T19:33:51.290Z,12.40
2022-10-30T19:35:58.882Z,12.40
2022-10-30T19:38:02.089Z,12.40
2022-10-30T19:40:26.348Z,12.30
2022-10-30T19:42:30.472Z,12.20
2022-10-30T19:44:33.401Z,12.20
2022-10-30T19:46:37.106Z,12.20
2022-10-30T19:48:56.854Z,12.10
2022-10-30T19:51:01.717Z,12.10
2022-10-30T19:53:06.049Z,12.00
2022-10-30T19:55:09.502Z,12.00
2022-10-30T19:57:15.072Z,12.00
2022-10-30T19:59:19.232Z,12.00
2022-10-30T20:01:22.057Z,11.90
2022-10-30T20:03:24.887Z,11.90
2022-10-30T20:05:30.149Z,11.90
2022-10-30T20:07:32.858Z,11.80
2022-10-30T20:09:35.635Z,11.70
2022-10-30T20:11:38.354Z,11.70
2022-10-30T20:13:41.246Z,11.70
2022-10-30T20:15:45.655Z,11.70
2022-10-30T20:17:48.442Z,11.60
2022-10-30T20:19:51.295Z,11.60
2022-10-30T20:21:54.340Z,11.60
2022-10-30T20:23:57.129Z,11.50
2022-10-30T20:26:02.647Z,11.40
2022-10-30T20:28:19.600Z,11.40
2022-10-30T20:30:27.881Z,11.40
2022-10-30T20:32:34.129Z,11.30
2022-10-30T20:34:36.864Z,11.30
2022-10-30T20:36:39.789Z,11.20
2022-10-30T20:38:42.510Z,11.10
2022-10-30T20:40:45.575Z,11.10
2022-10-30T20:44:55.945Z,11.00
2022-10-30T20:46:58.828Z,11.00
2022-10-30T20:49:16.780Z,11.00
2022-10-30T20:51:21.258Z,11.00
2022-10-30T20:53:23.986Z,11.00
2022-10-30T20:55:26.793Z,11.00
2022-10-30T20:57:29.651Z,11.00
2022-10-30T20:59:32.551Z,11.00
2022-10-30T21:01:35.411Z,11.00
2022-10-30T21:03:38.260Z,11.00
2022-10-30T21:05:44.974Z,10.90
2022-10-30T21:07:48.466Z,10.90
2022-10-30T21:09:51.159Z,10.80
2022-10-30T21:11:54.882Z,10.80
2022-10-30T21:13:58.661Z,10.70
2022-10-30T21:16:02.512Z,10.70
2022-10-30T21:18:09.616Z,10.60
2022-10-30T21:20:13.408Z,10.60
2022-10-30T21:22:19.473Z,10.50
2022-10-30T21:24:22.511Z,10.50
2022-10-30T21:26:25.448Z,10.50
2022-10-30T21:28:28.109Z,10.50
2022-10-30T21:30:31.409Z,10.50
2022-10-30T21:32:34.065Z,10.50
2022-10-30T21:34:36.825Z,10.50
2022-10-30T21:36:39.816Z,10.50
2022-10-30T21:38:45.221Z,10.50
2022-10-30T21:40:55.533Z,10.50
2022-10-30T21:43:01.383Z,10.40
2022-10-30T21:45:11.149Z,10.40
2022-10-30T21:47:16.492Z,10.40
2022-10-30T21:49:20.029Z,10.30
2022-10-30T21:51:24.002Z,10.30
2022-10-30T21:53:28.295Z,10.30
2022-10-30T21:55:32.343Z,10.20
2022-10-30T21:57:35.206Z,10.20
2022-10-30T21:59:40.637Z,10.20
2022-10-30T22:01:43.846Z,10.20
2022-10-30T22:03:47.088Z,10.10
2022-10-30T22:05:49.802Z,10.10
2022-10-30T22:07:53.053Z,10.10
2022-10-30T22:09:55.739Z,10.00
2022-10-30T22:11:59.717Z,10.00
2022-10-30T22:14:05.348Z,10.00
2022-10-30T22:16:12.574Z,9.90
2022-10-30T22:18:16.301Z,9.90
2022-10-30T22:20:19.435Z,9.90
2022-10-30T22:22:22.780Z,9.90
2022-10-30T22:24:25.622Z,9.90
2022-10-30T22:26:28.869Z,9.90
2022-10-30T22:28:36.122Z,9.90
2022-10-30T22:30:38.861Z,9.90
2022-10-30T22:32:42.199Z,9.90
2022-10-30T22:34:45.178Z,9.80
2022-10-30T22:36:48.157Z,9.80
2022-10-30T22:38:56.220Z,9.80
2022-10-30T22:41:09.340Z,9.80
2022-10-30T22:43:14.180Z,9.80
2022-10-30T22:45:18.790Z,9.80
2022-10-30T22:47:21.694Z,9.80
2022-10-30T22:49:24.352Z,9.70
2022-10-30T22:51:27.383Z,9.70
2022-10-30T22:53:31.672Z,9.70
2022-10-30T22:55:34.585Z,9.70
2022-10-30T22:57:37.397Z,9.60
2022-10-30T22:59:40.068Z,9.60
2022-10-30T23:01:44.495Z,9.60
2022-10-30T23:03:47.567Z,9.60
2022-10-30T23:05:59.633Z,9.50
2022-10-30T23:08:02.843Z,9.50
2022-10-30T23:10:07.353Z,9.50
2022-10-30T23:12:12.339Z,9.50
2022-10-30T23:14:15.743Z,9.50
2022-10-30T23:16:22.069Z,9.50
2022-10-30T23:18:26.858Z,9.50
2022-10-30T23:20:29.735Z,9.50
2022-10-30T23:22:32.615Z,9.50
2022-10-30T23:24:35.301Z,9.40
2022-10-30T23:26:37.987Z,9.50
2022-10-30T23:28:41.380Z,9.50
2022-10-30T23:30:44.631Z,9.50
2022-10-30T23:32:48.928Z,9.50
2022-10-30T23:34:53.183Z,9.40
2022-10-30T23:36:59.137Z,9.50
2022-10-30T23:39:07.839Z,9.50
2022-10-30T23:41:12.605Z,9.50
2022-10-30T23:43:17.252Z,9.50
2022-10-30T23:45:19.989Z,9.50
2022-10-30T23:47:22.914Z,9.50
2022-10-30T23:49:28.981Z,9.50
2022-10-30T23:51:35.742Z,9.40
2022-10-30T23:53:38.754Z,9.40
2022-10-30T23:55:41.425Z,9.40
2022-10-30T23:57:44.713Z,9.40
2022-10-30T23:59:47.865Z,9.40
